Relevés horaires Bierset (Belgique)


Relevés horaires à Bierset - Vendredi 29 Juin 2018
Heure UTC1 Température [°C] Vent [km/h] Hum. [%] Pres.4 [hPa] Visi. [Km] Nébu. [octa] Préc.5 [mm] Cond.
2m. Res. Ros. Dir.2 Vit. Moy. Raf.3
23:00 17.9 17.9 14.0 N 5.6 5.6 7.4 78 1016.6(0.6/3h) 30 0/8 -- --
22:00 18.9 18.9 12.8 N 5.6 7.4 11.1 68 1016.5(0.6/3h) 30 0/8 -- --
21:00 20.5 20.5 10.9 NNE 5.6 7.4 11.1 54 1016(-0.1/3h) 30 0/8 -- --
20:00 21.9 21.9 12.0 N 5.6 5.6 9.3 53 1015.7(-0.2/3h) 30 1/8 -- --
19:00 24.2 24.2 12.1 N 5.6 7.4 11.1 47 1015.5(-0.6/3h) 30 1/8 -- --
18:00 25.8 25.8 11.1 NNE 7.4 11.1 18.5 40 1015.6(-0.8/3h) 30 1/8 0/12h
--
17:00 26.6 26.6 10.4 N 7.4 9.3 14.8 36 1015.6(-1.1/3h) 30 1/8 -- --
16:00 26.8 26.8 10.6 N 9.3 9.3 14.8 36 1015.9(-1.4/3h) 30 0/8 -- --
15:00 26.8 26.8 10.8 N 7.4 11.1 18.5 37 1016.3(-1.5/3h) 30 0/8 -- --
14:00 26.9 26.9 9.4 NE 7.4 11.1 16.7 33 1016.8(-1.6/3h) 30 0/8 -- --
13:00 26.1 26.1 10.0 NE 11.1 11.1 18.5 36 1017.4(-1.4/3h) 30 0/8 -- --
12:00 25.8 25.8 10.7 NNE 11.1 13.0 18.5 39 1017.9(-1.2/3h) 30 0/8 0/6h
--
11:00 24.4 24.4 11.2 NE 11.1 13.0 18.5 44 1018.6(-0.8/3h) 30 0/8 -- --
10:00 23.5 23.5 11.3 ENE 9.3 11.1 16.7 46 1019(-0.5/3h) 30 0/8 -- --
09:00 21.6 21.6 13.1 N 7.4 7.4 13.0 58 1019.4(0.1/3h) 30 0/8 -- --
08:00 19.4 19.4 12.7 NNE 5.6 7.4 11.1 65 1019.7(0.0/3h) 20 0/8 -- --
07:00 18.0 18.0 12.3 NE 7.4 7.4 11.1 69 1019.9(0.1/3h) 30 0/8 -- --
06:00 16.6 16.6 11.6 NNE 5.6 7.4 13.0 72 1019.8(0.0/3h) 30 0/8 0/12h
--
05:00 15.3 15.3 10.9 N 3.7 5.6 7.4 75 1020(-0.2/3h) 45 0/8 -- --
04:00 14.4 14.4 10.6 N 5.6 5.6 13.0 78 1020(-0.6/3h) 45 0/8 -- --
03:00 15.5 15.5 10.7 NNE 5.6 7.4 13.0 73 1019.9(-0.6/3h) 50 0/8 -- --
02:00 15.9 15.9 10.7 NE 5.6 7.4 11.1 71 1020.2(0.0/3h) 50 0/8 -- --
01:00 18.6 18.6 10.4 NNE 5.6 7.4 13.0 59 1020.3(0.3/3h) 50 0/8 -- --
00:00 17.1 17.1 11.1 NNE 5.6 9.3 13.0 68 1020.4(0.5/3h) 50 0/8 0/6h
0/24h
--

1 Coordinated Universal Time. Actuellement il est 23:00 locale et 21:00 UTC.

2 Le vent souffle depuis la direction indiquée vers la direction oposée.

3 Les rafales max. sont disponible 40 min après l'heure du relevé.

4 Pour les stations d'altitude (plus de 600m) le géopotentiel du niveau le plus proche de la pression obligatoire est indiqué.

5 Les stations disposant d'un diffuseur peuvent indiquer "trace". Cela signifie que des précipitations ont touchés le sol mais que la quantité est inférieure à 0.1 mm.

Récapitulatif de la journée
Température [°C] Vent [km/h] Ensoleillement4 [h] Precipitations totale5 [mm] Pression [Hpa]
Min1 Max.2 Moy.3 Max. Min Max.
14.3 27.5 8.6 18.5 0 h 0 min 0 1015.5 1020.4

1 Température minimale relevée entre 18:00 UTC la veille et 18:00 UTC le jour donné.

2 Température maximale relevée entre 06:00 UTC le jour donné et 06:00 UTC le lendemain.

3 Vent moyen de la journée basé sur les relevés horaires.

4 Ensoleillement en heures relevé entre 06:00 UTC la veille et 06:00 UTC le jour donné.

5 Précipitations totales tombées entre 06:00 UTC la jour donné et 06:00 UTC le lendemain.

Graphiques horaires